Ana Sayfa
METAR-TAF:

METAR-TAF

Havaalanları :

Duşanbe, Tacikistan

Enlem: 38-33N, Boylam: 068-47E, yükseklik: 803 m

Güncel hava durumu gözlemi

Rapor saat 08:30 UTC de 16 dakika önce yapıldı.
Rüzgar değişken yönden 4 kt
Sıcaklık 19°C
Nem 26%
Basınç 1020 hPa
Görüş mesafesi 10 km veya daha fazla

METAR: UTDD 240830Z VRB02MPS 9999 NSC 19/M01 Q1020 R09/D NOSIG RMK QFE696/0928

Saat: 13:46 (08:46 UTC)

Tahmin

Rapor saat 06:00 UTC de 2 saat ve 46 dakika önce yapıldı.
Ayın 24'si saat 07 UTC'den ayın 24'si saat 19 UTC'ye kadar geçerli Tahmin
Rüzgar değişken yönden 4 kt
Görüş mesafesi: 6000 m
6000 ft yükseklikte az bulutlu, Kümülonimbus.
10000 ft yükseklikte parçalı bulutlu
Olasılık 40% :
Geçici
ayın 24'si saat 07 UTC'den ayın 24'si saat 16 UTC'ye kadar
gök gürültülü fırtına

TAF: UTDD 240600Z 2407/2419 VRB02MPS 6000 FEW060CB SCT100 PROB40 TEMPO 2407/2416 TS

4.000'den fazla havaalanı için hava durumu gözlemleri ve tahminleri (METAR ve TAF raporları).

Kullanılabilir istasyonlar harita üzerinde sarı ve kırmızı noktalarla gösterilir.

İstasyonun adını görmek için fareyi noktanın üzerinde gezdirin.

Sonrasında hava gözlem ve tahminlerini görmek için tıklayın.

Haritayı değiştirmek için: yaklaştırmak için siyah artı işaretli yeşil düğmeye ve uzaklaştırmak için de eksi işaretli düğmeye hızla tıklayın; bitişik haritalar için yeşil okları kullanın.


METAR-TAF: